sensor_id;sensor_type;location;lat;lon;timestamp;temperature;humidity
17333;DHT22;8784;50.94667800;7.08448400;2022-09-27T00:02:24;12.20;99.90
17333;DHT22;8784;50.94667800;7.08448400;2022-09-27T00:04:51;12.20;99.90
17333;DHT22;8784;50.94667800;7.08448400;2022-09-27T00:07:20;12.20;99.90
17333;DHT22;8784;50.94667800;7.08448400;2022-09-27T00:09:47;12.30;99.90
17333;DHT22;8784;50.94667800;7.08448400;2022-09-27T00:12:14;12.40;99.90
17333;DHT22;8784;50.94667800;7.08448400;2022-09-27T00:14:41;12.40;99.90
17333;DHT22;8784;50.94667800;7.08448400;2022-09-27T00:17:10;12.50;99.90
17333;DHT22;8784;50.94667800;7.08448400;2022-09-27T00:19:37;12.50;99.90
17333;DHT22;8784;50.94667800;7.08448400;2022-09-27T00:22:04;12.50;99.90
17333;DHT22;8784;50.94667800;7.08448400;2022-09-27T00:24:31;12.50;99.90
17333;DHT22;8784;50.94667800;7.08448400;2022-09-27T00:26:58;12.50;99.90
17333;DHT22;8784;50.94667800;7.08448400;2022-09-27T00:29:25;12.50;99.90
17333;DHT22;8784;50.94667800;7.08448400;2022-09-27T00:31:52;12.50;99.90
17333;DHT22;8784;50.94667800;7.08448400;2022-09-27T00:34:23;12.50;99.90
17333;DHT22;8784;50.94667800;7.08448400;2022-09-27T00:36:51;12.60;99.90
17333;DHT22;8784;50.94667800;7.08448400;2022-09-27T00:39:20;12.60;99.90
17333;DHT22;8784;50.94667800;7.08448400;2022-09-27T00:41:47;12.60;99.90
17333;DHT22;8784;50.94667800;7.08448400;2022-09-27T00:47:35;12.70;99.90
17333;DHT22;8784;50.94667800;7.08448400;2022-09-27T00:50:10;12.60;99.90
17333;DHT22;8784;50.94667800;7.08448400;2022-09-27T00:52:44;12.50;99.90
17333;DHT22;8784;50.94667800;7.08448400;2022-09-27T00:55:16;12.50;99.90
17333;DHT22;8784;50.94667800;7.08448400;2022-09-27T00:57:45;12.50;99.90
17333;DHT22;8784;50.94667800;7.08448400;2022-09-27T01:00:14;12.60;99.90
17333;DHT22;8784;50.94667800;7.08448400;2022-09-27T01:02:46;12.60;99.90
17333;DHT22;8784;50.94667800;7.08448400;2022-09-27T01:05:17;12.50;99.90
17333;DHT22;8784;50.94667800;7.08448400;2022-09-27T01:07:45;12.50;99.90
17333;DHT22;8784;50.94667800;7.08448400;2022-09-27T01:10:13;12.40;99.90
17333;DHT22;8784;50.94667800;7.08448400;2022-09-27T01:12:52;12.40;99.90
17333;DHT22;8784;50.94667800;7.08448400;2022-09-27T01:15:27;12.40;99.90
17333;DHT22;8784;50.94667800;7.08448400;2022-09-27T01:18:09;12.40;99.90
17333;DHT22;8784;50.94667800;7.08448400;2022-09-27T01:21:10;12.40;99.90
17333;DHT22;8784;50.94667800;7.08448400;2022-09-27T01:24:02;12.40;99.90
17333;DHT22;8784;50.94667800;7.08448400;2022-09-27T01:26:53;12.40;99.90
17333;DHT22;8784;50.94667800;7.08448400;2022-09-27T01:29:29;12.40;99.90
17333;DHT22;8784;50.94667800;7.08448400;2022-09-27T01:32:04;12.30;99.90
17333;DHT22;8784;50.94667800;7.08448400;2022-09-27T01:34:36;12.30;99.90
17333;DHT22;8784;50.94667800;7.08448400;2022-09-27T01:37:15;12.20;99.90
17333;DHT22;8784;50.94667800;7.08448400;2022-09-27T01:39:50;12.20;99.90
17333;DHT22;8784;50.94667800;7.08448400;2022-09-27T01:42:22;12.10;99.90
17333;DHT22;8784;50.94667800;7.08448400;2022-09-27T01:44:51;12.00;99.90
17333;DHT22;8784;50.94667800;7.08448400;2022-09-27T01:47:23;12.00;99.90
17333;DHT22;8784;50.94667800;7.08448400;2022-09-27T01:49:55;12.00;99.90
17333;DHT22;8784;50.94667800;7.08448400;2022-09-27T01:52:30;12.00;99.90
17333;DHT22;8784;50.94667800;7.08448400;2022-09-27T01:55:00;12.10;99.90
17333;DHT22;8784;50.94667800;7.08448400;2022-09-27T01:57:32;12.00;99.90
17333;DHT22;8784;50.94667800;7.08448400;2022-09-27T02:00:04;12.00;99.90
17333;DHT22;8784;50.94667800;7.08448400;2022-09-27T02:02:37;12.10;99.90
17333;DHT22;8784;50.94667800;7.08448400;2022-09-27T02:05:07;12.00;99.90
17333;DHT22;8784;50.94667800;7.08448400;2022-09-27T02:07:39;12.10;99.90
17333;DHT22;8784;50.94667800;7.08448400;2022-09-27T02:10:10;12.10;99.90
17333;DHT22;8784;50.94667800;7.08448400;2022-09-27T02:12:50;12.20;99.90
17333;DHT22;8784;50.94667800;7.08448400;2022-09-27T02:15:18;12.30;99.90
17333;DHT22;8784;50.94667800;7.08448400;2022-09-27T02:17:54;12.30;99.90
17333;DHT22;8784;50.94667800;7.08448400;2022-09-27T02:20:28;12.30;99.90
17333;DHT22;8784;50.94667800;7.08448400;2022-09-27T02:23:05;12.30;99.90
17333;DHT22;8784;50.94667800;7.08448400;2022-09-27T02:25:41;12.40;99.90
17333;DHT22;8784;50.94667800;7.08448400;2022-09-27T02:28:17;12.30;99.90
17333;DHT22;8784;50.94667800;7.08448400;2022-09-27T02:30:47;12.30;99.90
17333;DHT22;8784;50.94667800;7.08448400;2022-09-27T02:33:16;12.20;99.90
17333;DHT22;8784;50.94667800;7.08448400;2022-09-27T02:35:43;12.30;99.90
17333;DHT22;8784;50.94667800;7.08448400;2022-09-27T02:38:12;12.30;99.90
17333;DHT22;8784;50.94667800;7.08448400;2022-09-27T02:40:43;12.40;99.90
17333;DHT22;8784;50.94667800;7.08448400;2022-09-27T02:43:12;12.40;99.90
17333;DHT22;8784;50.94667800;7.08448400;2022-09-27T02:45:50;12.40;99.90
17333;DHT22;8784;50.94667800;7.08448400;2022-09-27T02:48:27;12.40;99.90
17333;DHT22;8784;50.94667800;7.08448400;2022-09-27T02:51:12;12.40;99.90
17333;DHT22;8784;50.94667800;7.08448400;2022-09-27T02:53:57;12.50;99.90
17333;DHT22;8784;50.94667800;7.08448400;2022-09-27T02:56:29;12.50;99.90
17333;DHT22;8784;50.94667800;7.08448400;2022-09-27T02:59:05;12.50;99.90
17333;DHT22;8784;50.94667800;7.08448400;2022-09-27T03:01:37;12.50;99.90
17333;DHT22;8784;50.94667800;7.08448400;2022-09-27T03:04:13;12.50;99.90
17333;DHT22;8784;50.94667800;7.08448400;2022-09-27T03:06:44;12.40;99.90
17333;DHT22;8784;50.94667800;7.08448400;2022-09-27T03:09:16;12.30;99.90
17333;DHT22;8784;50.94667800;7.08448400;2022-09-27T03:11:43;12.20;99.90
17333;DHT22;8784;50.94667800;7.08448400;2022-09-27T03:14:10;12.10;99.90
17333;DHT22;8784;50.94667800;7.08448400;2022-09-27T03:16:37;12.10;99.90
17333;DHT22;8784;50.94667800;7.08448400;2022-09-27T03:19:05;12.00;99.90
17333;DHT22;8784;50.94667800;7.08448400;2022-09-27T03:21:34;12.00;99.90
17333;DHT22;8784;50.94667800;7.08448400;2022-09-27T03:24:02;11.90;99.90
17333;DHT22;8784;50.94667800;7.08448400;2022-09-27T03:26:29;11.80;99.90
17333;DHT22;8784;50.94667800;7.08448400;2022-09-27T03:28:56;11.80;99.90
17333;DHT22;8784;50.94667800;7.08448400;2022-09-27T03:31:23;11.80;99.90
17333;DHT22;8784;50.94667800;7.08448400;2022-09-27T03:33:50;11.80;99.90
17333;DHT22;8784;50.94667800;7.08448400;2022-09-27T03:36:17;11.70;99.90
17333;DHT22;8784;50.94667800;7.08448400;2022-09-27T03:38:45;11.80;99.90
17333;DHT22;8784;50.94667800;7.08448400;2022-09-27T03:41:12;11.70;99.90
17333;DHT22;8784;50.94667800;7.08448400;2022-09-27T03:43:39;11.70;99.90
17333;DHT22;8784;50.94667800;7.08448400;2022-09-27T03:46:06;11.70;99.90
17333;DHT22;8784;50.94667800;7.08448400;2022-09-27T03:48:33;11.70;99.90
17333;DHT22;8784;50.94667800;7.08448400;2022-09-27T03:51:00;11.70;99.90
17333;DHT22;8784;50.94667800;7.08448400;2022-09-27T03:53:29;11.70;99.90
17333;DHT22;8784;50.94667800;7.08448400;2022-09-27T03:55:57;11.60;99.90
17333;DHT22;8784;50.94667800;7.08448400;2022-09-27T03:58:24;11.60;99.90
17333;DHT22;8784;50.94667800;7.08448400;2022-09-27T04:00:51;11.60;99.90
17333;DHT22;8784;50.94667800;7.08448400;2022-09-27T04:03:18;11.60;99.90
17333;DHT22;8784;50.94667800;7.08448400;2022-09-27T04:05:45;11.60;99.90
17333;DHT22;8784;50.94667800;7.08448400;2022-09-27T04:08:12;11.60;99.90
17333;DHT22;8784;50.94667800;7.08448400;2022-09-27T04:10:41;11.60;99.90
17333;DHT22;8784;50.94667800;7.08448400;2022-09-27T04:13:09;11.60;99.90
17333;DHT22;8784;50.94667800;7.08448400;2022-09-27T04:15:36;11.60;99.90
17333;DHT22;8784;50.94667800;7.08448400;2022-09-27T04:18:04;11.70;99.90
17333;DHT22;8784;50.94667800;7.08448400;2022-09-27T04:20:31;11.80;99.90
17333;DHT22;8784;50.94667800;7.08448400;2022-09-27T04:22:58;11.70;99.90
17333;DHT22;8784;50.94667800;7.08448400;2022-09-27T04:25:25;11.70;99.90
17333;DHT22;8784;50.94667800;7.08448400;2022-09-27T04:27:52;11.70;99.90
17333;DHT22;8784;50.94667800;7.08448400;2022-09-27T04:30:22;11.70;99.90
17333;DHT22;8784;50.94667800;7.08448400;2022-09-27T04:32:49;11.80;99.90
17333;DHT22;8784;50.94667800;7.08448400;2022-09-27T04:35:16;11.80;99.90
17333;DHT22;8784;50.94667800;7.08448400;2022-09-27T04:38:02;11.80;99.90
17333;DHT22;8784;50.94667800;7.08448400;2022-09-27T04:40:29;11.90;99.90
17333;DHT22;8784;50.94667800;7.08448400;2022-09-27T04:42:56;11.90;99.90
17333;DHT22;8784;50.94667800;7.08448400;2022-09-27T04:45:26;11.90;99.90
17333;DHT22;8784;50.94667800;7.08448400;2022-09-27T04:47:53;11.90;99.90
17333;DHT22;8784;50.94667800;7.08448400;2022-09-27T04:50:20;12.00;99.90
17333;DHT22;8784;50.94667800;7.08448400;2022-09-27T04:52:49;11.90;99.90
17333;DHT22;8784;50.94667800;7.08448400;2022-09-27T04:55:18;11.90;99.90
17333;DHT22;8784;50.94667800;7.08448400;2022-09-27T04:57:45;11.80;99.90
17333;DHT22;8784;50.94667800;7.08448400;2022-09-27T05:00:13;11.90;99.90
17333;DHT22;8784;50.94667800;7.08448400;2022-09-27T05:02:43;11.90;99.90
17333;DHT22;8784;50.94667800;7.08448400;2022-09-27T05:05:10;11.90;99.90
17333;DHT22;8784;50.94667800;7.08448400;2022-09-27T05:07:37;11.80;99.90
17333;DHT22;8784;50.94667800;7.08448400;2022-09-27T05:10:05;11.80;99.90
17333;DHT22;8784;50.94667800;7.08448400;2022-09-27T05:12:32;11.70;99.90
17333;DHT22;8784;50.94667800;7.08448400;2022-09-27T05:15:00;11.70;99.90
17333;DHT22;8784;50.94667800;7.08448400;2022-09-27T05:17:27;11.70;99.90
17333;DHT22;8784;50.94667800;7.08448400;2022-09-27T05:19:55;11.60;99.90
17333;DHT22;8784;50.94667800;7.08448400;2022-09-27T05:22:22;11.60;99.90
17333;DHT22;8784;50.94667800;7.08448400;2022-09-27T05:24:49;11.50;99.90
17333;DHT22;8784;50.94667800;7.08448400;2022-09-27T05:27:16;11.50;99.90
17333;DHT22;8784;50.94667800;7.08448400;2022-09-27T05:29:45;11.40;99.90
17333;DHT22;8784;50.94667800;7.08448400;2022-09-27T05:32:12;11.40;99.90
17333;DHT22;8784;50.94667800;7.08448400;2022-09-27T05:34:39;11.40;99.90
17333;DHT22;8784;50.94667800;7.08448400;2022-09-27T05:37:08;11.40;99.90
17333;DHT22;8784;50.94667800;7.08448400;2022-09-27T05:39:35;11.40;99.90
17333;DHT22;8784;50.94667800;7.08448400;2022-09-27T05:42:02;11.40;99.90
17333;DHT22;8784;50.94667800;7.08448400;2022-09-27T05:44:31;11.50;99.90
17333;DHT22;8784;50.94667800;7.08448400;2022-09-27T05:46:59;11.40;99.90
17333;DHT22;8784;50.94667800;7.08448400;2022-09-27T05:49:28;11.40;99.90
17333;DHT22;8784;50.94667800;7.08448400;2022-09-27T05:51:55;11.40;99.90
17333;DHT22;8784;50.94667800;7.08448400;2022-09-27T05:54:24;11.40;99.90
17333;DHT22;8784;50.94667800;7.08448400;2022-09-27T05:56:53;11.40;99.90
17333;DHT22;8784;50.94667800;7.08448400;2022-09-27T05:59:23;11.40;99.90
17333;DHT22;8784;50.94667800;7.08448400;2022-09-27T06:01:50;11.40;99.90
17333;DHT22;8784;50.94667800;7.08448400;2022-09-27T06:04:17;11.40;99.90
17333;DHT22;8784;50.94667800;7.08448400;2022-09-27T06:06:44;11.50;99.90
17333;DHT22;8784;50.94667800;7.08448400;2022-09-27T06:09:12;11.50;99.90
17333;DHT22;8784;50.94667800;7.08448400;2022-09-27T06:11:41;11.60;99.90
17333;DHT22;8784;50.94667800;7.08448400;2022-09-27T06:14:10;11.60;99.90
17333;DHT22;8784;50.94667800;7.08448400;2022-09-27T06:16:37;11.70;99.90
17333;DHT22;8784;50.94667800;7.08448400;2022-09-27T06:19:04;11.80;99.90
17333;DHT22;8784;50.94667800;7.08448400;2022-09-27T06:21:31;11.90;99.90
17333;DHT22;8784;50.94667800;7.08448400;2022-09-27T06:23:58;12.00;99.90
17333;DHT22;8784;50.94667800;7.08448400;2022-09-27T06:26:25;12.10;99.90
17333;DHT22;8784;50.94667800;7.08448400;2022-09-27T06:28:54;12.20;99.90
17333;DHT22;8784;50.94667800;7.08448400;2022-09-27T06:31:21;12.30;99.90
17333;DHT22;8784;50.94667800;7.08448400;2022-09-27T06:33:48;12.30;99.90
17333;DHT22;8784;50.94667800;7.08448400;2022-09-27T06:36:15;12.30;99.90
17333;DHT22;8784;50.94667800;7.08448400;2022-09-27T06:38:43;12.30;99.90
17333;DHT22;8784;50.94667800;7.08448400;2022-09-27T06:41:10;12.30;99.90
17333;DHT22;8784;50.94667800;7.08448400;2022-09-27T06:43:37;12.30;99.90
17333;DHT22;8784;50.94667800;7.08448400;2022-09-27T06:46:06;12.40;99.90
17333;DHT22;8784;50.94667800;7.08448400;2022-09-27T06:48:34;12.40;99.90
17333;DHT22;8784;50.94667800;7.08448400;2022-09-27T06:51:04;12.40;99.90
17333;DHT22;8784;50.94667800;7.08448400;2022-09-27T06:53:31;12.40;99.90
17333;DHT22;8784;50.94667800;7.08448400;2022-09-27T06:55:59;12.50;99.90
17333;DHT22;8784;50.94667800;7.08448400;2022-09-27T06:58:26;12.60;99.90
17333;DHT22;8784;50.94667800;7.08448400;2022-09-27T07:01:13;12.60;99.90
17333;DHT22;8784;50.94667800;7.08448400;2022-09-27T07:03:42;12.60;99.90
17333;DHT22;8784;50.94667800;7.08448400;2022-09-27T07:06:16;12.60;99.90
17333;DHT22;8784;50.94667800;7.08448400;2022-09-27T07:08:48;12.60;99.90
17333;DHT22;8784;50.94667800;7.08448400;2022-09-27T07:11:16;12.50;99.90
17333;DHT22;8784;50.94667800;7.08448400;2022-09-27T07:13:43;12.50;99.90
17333;DHT22;8784;50.94667800;7.08448400;2022-09-27T07:16:12;12.50;99.90
17333;DHT22;8784;50.94667800;7.08448400;2022-09-27T07:18:40;12.50;99.90
17333;DHT22;8784;50.94667800;7.08448400;2022-09-27T07:21:07;12.40;99.90
17333;DHT22;8784;50.94667800;7.08448400;2022-09-27T07:23:35;12.40;99.90
17333;DHT22;8784;50.94667800;7.08448400;2022-09-27T07:26:03;12.40;99.90
17333;DHT22;8784;50.94667800;7.08448400;2022-09-27T07:28:32;12.40;99.90
17333;DHT22;8784;50.94667800;7.08448400;2022-09-27T07:31:00;12.30;99.90
17333;DHT22;8784;50.94667800;7.08448400;2022-09-27T07:33:29;12.30;99.90
17333;DHT22;8784;50.94667800;7.08448400;2022-09-27T07:35:57;12.20;99.90
17333;DHT22;8784;50.94667800;7.08448400;2022-09-27T07:38:24;12.20;99.90
17333;DHT22;8784;50.94667800;7.08448400;2022-09-27T07:40:51;12.10;99.90
17333;DHT22;8784;50.94667800;7.08448400;2022-09-27T07:43:18;12.10;99.90
17333;DHT22;8784;50.94667800;7.08448400;2022-09-27T07:45:45;12.00;99.90
17333;DHT22;8784;50.94667800;7.08448400;2022-09-27T07:48:13;12.00;99.90
17333;DHT22;8784;50.94667800;7.08448400;2022-09-27T07:50:42;12.00;99.90
17333;DHT22;8784;50.94667800;7.08448400;2022-09-27T07:53:09;12.00;99.90
17333;DHT22;8784;50.94667800;7.08448400;2022-09-27T07:55:39;12.00;99.90
17333;DHT22;8784;50.94667800;7.08448400;2022-09-27T07:58:08;12.00;99.90
17333;DHT22;8784;50.94667800;7.08448400;2022-09-27T08:00:36;12.00;99.90
17333;DHT22;8784;50.94667800;7.08448400;2022-09-27T08:03:05;12.00;99.90
17333;DHT22;8784;50.94667800;7.08448400;2022-09-27T08:05:34;12.10;99.90
17333;DHT22;8784;50.94667800;7.08448400;2022-09-27T08:08:03;12.20;99.90
17333;DHT22;8784;50.94667800;7.08448400;2022-09-27T08:10:30;12.20;99.90
17333;DHT22;8784;50.94667800;7.08448400;2022-09-27T08:13:00;12.30;99.90
17333;DHT22;8784;50.94667800;7.08448400;2022-09-27T08:15:27;12.30;99.90
17333;DHT22;8784;50.94667800;7.08448400;2022-09-27T08:17:54;12.40;99.90
17333;DHT22;8784;50.94667800;7.08448400;2022-09-27T08:20:22;12.40;99.90
17333;DHT22;8784;50.94667800;7.08448400;2022-09-27T08:22:49;12.50;99.90
17333;DHT22;8784;50.94667800;7.08448400;2022-09-27T08:25:17;12.60;99.90
17333;DHT22;8784;50.94667800;7.08448400;2022-09-27T08:27:54;12.70;99.90
17333;DHT22;8784;50.94667800;7.08448400;2022-09-27T08:30:22;12.80;99.90
17333;DHT22;8784;50.94667800;7.08448400;2022-09-27T08:32:53;12.80;99.90
17333;DHT22;8784;50.94667800;7.08448400;2022-09-27T08:35:20;13.00;99.90
17333;DHT22;8784;50.94667800;7.08448400;2022-09-27T08:37:52;13.00;99.90
17333;DHT22;8784;50.94667800;7.08448400;2022-09-27T08:40:23;13.10;99.90
17333;DHT22;8784;50.94667800;7.08448400;2022-09-27T08:43:00;13.10;99.90
17333;DHT22;8784;50.94667800;7.08448400;2022-09-27T08:45:33;13.10;99.90
17333;DHT22;8784;50.94667800;7.08448400;2022-09-27T08:48:20;13.30;99.90
17333;DHT22;8784;50.94667800;7.08448400;2022-09-27T08:50:48;13.40;99.90
17333;DHT22;8784;50.94667800;7.08448400;2022-09-27T08:53:20;13.40;99.90
17333;DHT22;8784;50.94667800;7.08448400;2022-09-27T08:55:50;13.50;99.90
17333;DHT22;8784;50.94667800;7.08448400;2022-09-27T08:58:24;13.60;99.90
17333;DHT22;8784;50.94667800;7.08448400;2022-09-27T09:00:54;13.70;99.90
17333;DHT22;8784;50.94667800;7.08448400;2022-09-27T09:03:26;13.80;99.90
17333;DHT22;8784;50.94667800;7.08448400;2022-09-27T09:06:09;13.90;99.90
17333;DHT22;8784;50.94667800;7.08448400;2022-09-27T09:08:49;14.00;99.90
17333;DHT22;8784;50.94667800;7.08448400;2022-09-27T09:11:23;14.10;99.90
17333;DHT22;8784;50.94667800;7.08448400;2022-09-27T09:17:11;14.40;99.90
17333;DHT22;8784;50.94667800;7.08448400;2022-09-27T09:19:51;14.70;99.90
17333;DHT22;8784;50.94667800;7.08448400;2022-09-27T09:22:37;15.10;99.90
17333;DHT22;8784;50.94667800;7.08448400;2022-09-27T09:25:21;15.50;99.90
17333;DHT22;8784;50.94667800;7.08448400;2022-09-27T09:27:57;15.60;99.90
17333;DHT22;8784;50.94667800;7.08448400;2022-09-27T09:30:33;15.60;99.90
17333;DHT22;8784;50.94667800;7.08448400;2022-09-27T09:33:13;15.50;99.90
17333;DHT22;8784;50.94667800;7.08448400;2022-09-27T09:35:46;15.40;99.90
17333;DHT22;8784;50.94667800;7.08448400;2022-09-27T09:38:19;15.30;99.90
17333;DHT22;8784;50.94667800;7.08448400;2022-09-27T09:40:50;15.20;99.90
17333;DHT22;8784;50.94667800;7.08448400;2022-09-27T09:43:23;15.20;99.90
17333;DHT22;8784;50.94667800;7.08448400;2022-09-27T09:45:55;15.00;99.90
17333;DHT22;8784;50.94667800;7.08448400;2022-09-27T09:48:31;14.90;99.90
17333;DHT22;8784;50.94667800;7.08448400;2022-09-27T09:51:05;14.70;99.90
17333;DHT22;8784;50.94667800;7.08448400;2022-09-27T09:53:40;14.60;99.90
17333;DHT22;8784;50.94667800;7.08448400;2022-09-27T09:56:12;14.50;99.90
17333;DHT22;8784;50.94667800;7.08448400;2022-09-27T09:58:43;14.40;99.90
17333;DHT22;8784;50.94667800;7.08448400;2022-09-27T10:01:17;14.30;99.90
17333;DHT22;8784;50.94667800;7.08448400;2022-09-27T10:03:45;14.20;99.90
17333;DHT22;8784;50.94667800;7.08448400;2022-09-27T10:06:14;14.10;99.90
17333;DHT22;8784;50.94667800;7.08448400;2022-09-27T10:08:42;14.00;99.90
17333;DHT22;8784;50.94667800;7.08448400;2022-09-27T10:11:18;13.90;99.90
17333;DHT22;8784;50.94667800;7.08448400;2022-09-27T10:13:47;13.80;99.90
17333;DHT22;8784;50.94667800;7.08448400;2022-09-27T10:16:16;13.80;99.90
17333;DHT22;8784;50.94667800;7.08448400;2022-09-27T10:18:45;13.80;99.90
17333;DHT22;8784;50.94667800;7.08448400;2022-09-27T10:21:17;13.80;99.90
17333;DHT22;8784;50.94667800;7.08448400;2022-09-27T10:24:01;13.80;99.90
17333;DHT22;8784;50.94667800;7.08448400;2022-09-27T10:26:29;13.80;99.90
17333;DHT22;8784;50.94667800;7.08448400;2022-09-27T10:28:56;13.90;99.90
17333;DHT22;8784;50.94667800;7.08448400;2022-09-27T10:31:24;13.90;99.90
17333;DHT22;8784;50.94667800;7.08448400;2022-09-27T10:34:02;14.00;99.90
17333;DHT22;8784;50.94667800;7.08448400;2022-09-27T10:36:33;14.10;99.90
17333;DHT22;8784;50.94667800;7.08448400;2022-09-27T10:39:03;14.20;99.90
17333;DHT22;8784;50.94667800;7.08448400;2022-09-27T10:41:32;14.20;99.90
17333;DHT22;8784;50.94667800;7.08448400;2022-09-27T10:44:19;14.30;99.90
17333;DHT22;8784;50.94667800;7.08448400;2022-09-27T10:46:48;14.30;99.90
17333;DHT22;8784;50.94667800;7.08448400;2022-09-27T10:49:20;14.40;99.90
17333;DHT22;8784;50.94667800;7.08448400;2022-09-27T10:51:51;14.30;99.90
17333;DHT22;8784;50.94667800;7.08448400;2022-09-27T10:54:20;14.30;99.90
17333;DHT22;8784;50.94667800;7.08448400;2022-09-27T10:56:55;14.20;99.90
17333;DHT22;8784;50.94667800;7.08448400;2022-09-27T10:59:23;14.10;99.90
17333;DHT22;8784;50.94667800;7.08448400;2022-09-27T11:01:50;14.10;99.90
17333;DHT22;8784;50.94667800;7.08448400;2022-09-27T11:04:25;14.10;99.90
17333;DHT22;8784;50.94667800;7.08448400;2022-09-27T11:07:06;14.20;99.90
17333;DHT22;8784;50.94667800;7.08448400;2022-09-27T11:09:45;14.30;99.90
17333;DHT22;8784;50.94667800;7.08448400;2022-09-27T11:12:14;14.40;99.90
17333;DHT22;8784;50.94667800;7.08448400;2022-09-27T11:14:44;14.50;99.90
17333;DHT22;8784;50.94667800;7.08448400;2022-09-27T11:17:16;14.60;99.90
17333;DHT22;8784;50.94667800;7.08448400;2022-09-27T11:20:05;14.60;99.90
17333;DHT22;8784;50.94667800;7.08448400;2022-09-27T11:25:33;14.60;99.90
17333;DHT22;8784;50.94667800;7.08448400;2022-09-27T11:28:11;14.60;99.90
17333;DHT22;8784;50.94667800;7.08448400;2022-09-27T11:30:48;14.60;99.90
17333;DHT22;8784;50.94667800;7.08448400;2022-09-27T11:36:32;14.50;99.90
17333;DHT22;8784;50.94667800;7.08448400;2022-09-27T11:39:06;14.50;99.90
17333;DHT22;8784;50.94667800;7.08448400;2022-09-27T11:41:50;14.50;99.90
17333;DHT22;8784;50.94667800;7.08448400;2022-09-27T11:44:31;14.50;99.90
17333;DHT22;8784;50.94667800;7.08448400;2022-09-27T11:47:09;14.60;99.90
17333;DHT22;8784;50.94667800;7.08448400;2022-09-27T11:50:16;14.60;99.90
17333;DHT22;8784;50.94667800;7.08448400;2022-09-27T11:52:55;14.70;99.90
17333;DHT22;8784;50.94667800;7.08448400;2022-09-27T11:55:37;14.70;99.90
17333;DHT22;8784;50.94667800;7.08448400;2022-09-27T11:58:14;14.70;99.90
17333;DHT22;8784;50.94667800;7.08448400;2022-09-27T12:00:56;14.70;99.90
17333;DHT22;8784;50.94667800;7.08448400;2022-09-27T12:03:55;14.80;99.90
17333;DHT22;8784;50.94667800;7.08448400;2022-09-27T12:06:34;14.70;99.90
17333;DHT22;8784;50.94667800;7.08448400;2022-09-27T12:09:09;14.70;99.90
17333;DHT22;8784;50.94667800;7.08448400;2022-09-27T12:11:42;14.60;99.90
17333;DHT22;8784;50.94667800;7.08448400;2022-09-27T12:14:17;14.60;99.90
17333;DHT22;8784;50.94667800;7.08448400;2022-09-27T12:16:47;14.60;99.90
17333;DHT22;8784;50.94667800;7.08448400;2022-09-27T12:19:18;14.50;99.90
17333;DHT22;8784;50.94667800;7.08448400;2022-09-27T12:21:47;14.50;99.90
17333;DHT22;8784;50.94667800;7.08448400;2022-09-27T12:24:19;14.50;99.90
17333;DHT22;8784;50.94667800;7.08448400;2022-09-27T12:26:49;14.40;99.90
17333;DHT22;8784;50.94667800;7.08448400;2022-09-27T12:29:21;14.40;99.90
17333;DHT22;8784;50.94667800;7.08448400;2022-09-27T12:31:55;14.40;99.90
17333;DHT22;8784;50.94667800;7.08448400;2022-09-27T12:34:28;14.40;99.90
17333;DHT22;8784;50.94667800;7.08448400;2022-09-27T12:37:02;14.40;99.90
17333;DHT22;8784;50.94667800;7.08448400;2022-09-27T12:39:40;14.40;99.90
17333;DHT22;8784;50.94667800;7.08448400;2022-09-27T12:42:16;14.40;99.90
17333;DHT22;8784;50.94667800;7.08448400;2022-09-27T12:44:45;14.30;99.90
17333;DHT22;8784;50.94667800;7.08448400;2022-09-27T12:47:22;14.20;99.90
17333;DHT22;8784;50.94667800;7.08448400;2022-09-27T12:49:56;14.00;99.90
17333;DHT22;8784;50.94667800;7.08448400;2022-09-27T12:52:30;13.90;99.90
17333;DHT22;8784;50.94667800;7.08448400;2022-09-27T12:55:20;13.80;99.90
17333;DHT22;8784;50.94667800;7.08448400;2022-09-27T12:58:10;13.80;99.90
17333;DHT22;8784;50.94667800;7.08448400;2022-09-27T13:00:40;13.80;99.90
17333;DHT22;8784;50.94667800;7.08448400;2022-09-27T13:03:29;13.70;99.90
17333;DHT22;8784;50.94667800;7.08448400;2022-09-27T13:12:07;13.60;99.90
17333;DHT22;8784;50.94667800;7.08448400;2022-09-27T13:14:42;13.60;99.90
17333;DHT22;8784;50.94667800;7.08448400;2022-09-27T13:20:38;13.60;99.90
17333;DHT22;8784;50.94667800;7.08448400;2022-09-27T13:26:20;13.40;99.90
17333;DHT22;8784;50.94667800;7.08448400;2022-09-27T13:28:58;13.30;99.90
17333;DHT22;8784;50.94667800;7.08448400;2022-09-27T13:34:38;13.00;99.90
17333;DHT22;8784;50.94667800;7.08448400;2022-09-27T13:37:33;13.00;99.90
17333;DHT22;8784;50.94667800;7.08448400;2022-09-27T13:40:22;12.80;99.90
17333;DHT22;8784;50.94667800;7.08448400;2022-09-27T13:43:00;12.90;99.90
17333;DHT22;8784;50.94667800;7.08448400;2022-09-27T13:45:33;12.80;99.90
17333;DHT22;8784;50.94667800;7.08448400;2022-09-27T13:48:09;12.90;99.90
17333;DHT22;8784;50.94667800;7.08448400;2022-09-27T13:50:48;12.90;99.90
17333;DHT22;8784;50.94667800;7.08448400;2022-09-27T13:53:24;12.90;99.90
17333;DHT22;8784;50.94667800;7.08448400;2022-09-27T13:55:54;12.90;99.90
17333;DHT22;8784;50.94667800;7.08448400;2022-09-27T13:58:44;12.90;99.90
17333;DHT22;8784;50.94667800;7.08448400;2022-09-27T14:01:25;12.90;99.90
17333;DHT22;8784;50.94667800;7.08448400;2022-09-27T14:03:55;12.90;99.90
17333;DHT22;8784;50.94667800;7.08448400;2022-09-27T14:06:29;13.00;99.90
17333;DHT22;8784;50.94667800;7.08448400;2022-09-27T14:09:02;13.10;99.90
17333;DHT22;8784;50.94667800;7.08448400;2022-09-27T14:11:33;13.20;99.90
17333;DHT22;8784;50.94667800;7.08448400;2022-09-27T14:14:02;13.30;99.90
17333;DHT22;8784;50.94667800;7.08448400;2022-09-27T14:16:32;13.50;99.90
17333;DHT22;8784;50.94667800;7.08448400;2022-09-27T14:19:01;13.60;99.90
17333;DHT22;8784;50.94667800;7.08448400;2022-09-27T14:21:31;13.70;99.90
17333;DHT22;8784;50.94667800;7.08448400;2022-09-27T14:24:20;13.70;99.90
17333;DHT22;8784;50.94667800;7.08448400;2022-09-27T14:26:48;13.90;99.90
17333;DHT22;8784;50.94667800;7.08448400;2022-09-27T14:29:16;13.90;99.90